Time;durP1;ratioP1;P1;durP2;ratioP2;P2;SDS_P1;SDS_P2;PMS_P1;PMS_P2;Temp;Humidity;BMP_temperature;BMP_pressure;BME280_temperature;BME280_humidity;BME280_pressure;Samples;Min_cycle;Max_cycle;Signal;HPM_P1;HPM_P2
2022/11/24 00:03:42;;;;;;;16.20;8.47;;;8.80;99.90;;;;;;10243369;28;20232;-82
2022/11/24 00:08:45;;;;;;;9.60;5.90;;;8.80;99.90;;;;;;10228364;29;20567;-82
2022/11/24 00:13:49;;;;;;;10.80;6.57;;;8.90;99.90;;;;;;10229001;28;20693;-82
2022/11/24 00:18:53;;;;;;;10.00;6.00;;;8.90;99.90;;;;;;10252461;29;20672;-82
2022/11/24 00:23:56;;;;;;;9.63;5.60;;;8.90;99.90;;;;;;10248385;28;20232;-81
2022/11/24 00:29:02;;;;;;;8.40;5.70;;;8.90;99.90;;;;;;10227134;28;20260;-81
2022/11/24 00:34:05;;;;;;;11.03;5.33;;;9.00;99.90;;;;;;10263297;29;20220;-81
2022/11/24 00:39:10;;;;;;;13.23;5.57;;;9.10;99.90;;;;;;10249127;29;20232;-81
2022/11/24 00:44:14;;;;;;;8.47;4.80;;;9.10;99.90;;;;;;10249417;28;20252;-81
2022/11/24 00:49:16;;;;;;;11.60;4.60;;;9.20;99.90;;;;;;10261689;28;20642;-83
2022/11/24 00:54:18;;;;;;;7.13;4.67;;;9.20;99.90;;;;;;10247026;28;20256;-80
2022/11/24 00:59:21;;;;;;;6.70;4.60;;;9.30;99.90;;;;;;10233396;29;20235;-83
2022/11/24 01:04:24;;;;;;;9.10;4.57;;;9.20;99.90;;;;;;10299920;23;20238;-81
2022/11/24 01:09:26;;;;;;;10.60;5.90;;;9.10;99.90;;;;;;10375633;28;20252;-82
2022/11/24 01:14:30;;;;;;;11.10;5.33;;;9.10;99.90;;;;;;10389292;28;20223;-82
2022/11/24 01:19:33;;;;;;;7.53;4.37;;;9.10;99.90;;;;;;10384311;28;20241;-81
2022/11/24 01:24:35;;;;;;;7.00;4.07;;;9.00;99.90;;;;;;10393460;28;20247;-81
2022/11/24 01:29:38;;;;;;;7.50;3.97;;;9.00;99.90;;;;;;10368537;28;20270;-78
2022/11/24 01:34:40;;;;;;;10.90;4.87;;;9.00;99.90;;;;;;10405830;28;20213;-81
2022/11/24 01:39:42;;;;;;;9.33;4.80;;;9.00;99.90;;;;;;10417067;28;20197;-82
2022/11/24 01:44:46;;;;;;;6.97;4.33;;;9.00;99.90;;;;;;10413159;28;20224;-80
2022/11/24 01:49:51;;;;;;;7.63;4.23;;;9.10;99.90;;;;;;10422038;28;20229;-79
2022/11/24 01:54:57;;;;;;;8.17;3.40;;;9.10;99.90;;;;;;10419834;28;20226;-82
2022/11/24 02:00:04;;;;;;;5.37;3.50;;;9.20;99.90;;;;;;10416556;28;20214;-81
2022/11/24 02:05:21;;;;;;;6.63;3.73;;;9.30;99.90;;;;;;10382712;28;20217;-82
2022/11/24 02:10:23;;;;;;;5.37;3.70;;;9.40;99.90;;;;;;10381645;28;20202;-81
2022/11/24 02:15:28;;;;;;;5.70;3.73;;;9.50;99.90;;;;;;10381016;28;20305;-76
2022/11/24 02:20:30;;;;;;;8.13;3.67;;;9.50;99.90;;;;;;10381804;28;20669;-81
2022/11/24 02:25:39;;;;;;;8.20;4.10;;;9.60;99.90;;;;;;10382673;28;20675;-81
2022/11/24 02:30:43;;;;;;;8.50;4.07;;;9.60;99.90;;;;;;10384470;28;20199;-79
2022/11/24 02:35:45;;;;;;;7.90;3.83;;;9.50;99.90;;;;;;10388680;28;20230;-81
2022/11/24 02:40:48;;;;;;;9.10;3.70;;;9.50;99.90;;;;;;10377230;28;20670;-77
2022/11/24 02:45:52;;;;;;;7.87;3.73;;;9.50;99.90;;;;;;10370982;28;20754;-77
2022/11/24 02:50:54;;;;;;;6.90;4.10;;;9.50;99.90;;;;;;10369049;28;20286;-78
2022/11/24 02:55:56;;;;;;;7.00;3.60;;;9.40;99.90;;;;;;10346155;28;20317;-76
2022/11/24 03:00:59;;;;;;;7.60;3.13;;;9.50;99.90;;;;;;10370764;28;20229;-77
2022/11/24 03:06:01;;;;;;;6.67;3.47;;;9.40;99.90;;;;;;10369097;28;20301;-80
2022/11/24 03:11:04;;;;;;;5.20;3.70;;;9.30;99.90;;;;;;10352877;28;20578;-77
2022/11/24 03:16:10;;;;;;;11.13;7.00;;;9.30;99.90;;;;;;10369687;28;20309;-80
2022/11/24 03:21:12;;;;;;;5.00;3.10;;;9.20;99.90;;;;;;10368608;28;20206;-78
2022/11/24 03:26:16;;;;;;;6.87;4.30;;;9.20;99.90;;;;;;10368426;28;20234;-77
2022/11/24 03:31:20;;;;;;;5.53;3.87;;;9.20;99.90;;;;;;10369907;28;20645;-79
2022/11/24 03:36:22;;;;;;;5.17;3.47;;;9.10;99.90;;;;;;10368766;28;20219;-76
2022/11/24 03:41:24;;;;;;;7.47;3.37;;;9.10;99.90;;;;;;10360796;28;20203;-75
2022/11/24 03:46:27;;;;;;;4.30;3.90;;;9.10;99.90;;;;;;10353724;28;20218;-76
2022/11/24 03:51:29;;;;;;;6.53;4.20;;;9.00;99.90;;;;;;10374215;28;20198;-76
2022/11/24 03:56:31;;;;;;;4.63;3.90;;;9.00;99.90;;;;;;10376677;28;20214;-77
2022/11/24 04:01:35;;;;;;;6.20;3.97;;;9.00;99.90;;;;;;10376397;28;20210;-76
2022/11/24 04:06:37;;;;;;;6.17;4.30;;;9.10;99.90;;;;;;10376888;28;20635;-77
2022/11/24 04:17:00;;;;;;;6.33;4.70;;;9.00;99.90;;;;;;10375990;28;20222;-77
2022/11/24 04:22:02;;;;;;;5.87;4.67;;;9.00;99.90;;;;;;10409086;28;20206;-77
2022/11/24 04:27:04;;;;;;;6.83;4.60;;;9.00;99.90;;;;;;10382635;28;20655;-79
2022/11/24 04:32:07;;;;;;;4.83;4.23;;;9.00;99.90;;;;;;10374294;28;20289;-78
2022/11/24 04:37:10;;;;;;;6.50;4.77;;;9.00;99.90;;;;;;10375357;28;20273;-77
2022/11/24 04:42:12;;;;;;;10.73;4.60;;;8.90;99.90;;;;;;10359718;28;20548;-77
2022/11/24 04:47:17;;;;;;;6.90;3.83;;;8.90;99.90;;;;;;10390989;28;20232;-80
2022/11/24 04:52:20;;;;;;;5.60;4.47;;;9.00;99.90;;;;;;10392557;28;20221;-80
2022/11/24 04:57:24;;;;;;;5.70;3.93;;;9.00;99.90;;;;;;10396940;28;20305;-81
2022/11/24 05:02:27;;;;;;;6.77;5.17;;;9.00;99.90;;;;;;10387092;28;20230;-81
2022/11/24 05:07:29;;;;;;;5.87;4.30;;;9.00;99.90;;;;;;10381813;28;20257;-81
2022/11/24 05:12:32;;;;;;;8.50;4.50;;;9.00;99.90;;;;;;10379991;28;20231;-80
2022/11/24 05:17:37;;;;;;;10.60;4.50;;;9.00;99.90;;;;;;10381319;28;20687;-81
2022/11/24 05:22:40;;;;;;;7.67;3.87;;;8.90;99.90;;;;;;10381034;28;20194;-81
2022/11/24 05:27:42;;;;;;;5.80;3.53;;;8.90;99.90;;;;;;10363687;28;20635;-80
2022/11/24 05:32:45;;;;;;;5.83;4.30;;;8.90;99.90;;;;;;10362678;28;20211;-80
2022/11/24 05:37:48;;;;;;;5.87;4.57;;;8.90;99.90;;;;;;10381445;28;20219;-81
2022/11/24 05:42:50;;;;;;;7.90;4.20;;;8.80;99.90;;;;;;10381927;28;20285;-78
2022/11/24 05:47:53;;;;;;;11.40;6.30;;;8.80;99.90;;;;;;10382613;28;20302;-79
2022/11/24 05:52:55;;;;;;;11.20;7.97;;;8.80;99.90;;;;;;10380908;28;20199;-81
2022/11/24 05:58:02;;;;;;;8.70;4.50;;;8.90;99.90;;;;;;10379905;28;20309;-81
2022/11/24 06:03:05;;;;;;;10.17;5.10;;;8.90;99.90;;;;;;10380164;28;20631;-81
2022/11/24 06:08:07;;;;;;;8.30;5.10;;;8.90;99.90;;;;;;10376727;28;20230;-81
2022/11/24 06:13:09;;;;;;;7.67;5.10;;;8.90;99.90;;;;;;10361145;28;20197;-81
2022/11/24 06:18:13;;;;;;;11.47;5.60;;;9.00;99.90;;;;;;10378703;28;20336;-81
2022/11/24 06:23:15;;;;;;;7.13;4.77;;;9.00;99.90;;;;;;10372843;28;20217;-79
2022/11/24 06:28:17;;;;;;;7.17;4.47;;;9.10;99.90;;;;;;10354217;28;20644;-80
2022/11/24 06:33:21;;;;;;;9.27;5.77;;;9.10;99.90;;;;;;10369732;28;20202;-80
2022/11/24 06:38:23;;;;;;;10.90;5.20;;;9.20;99.90;;;;;;10371592;28;20229;-78
2022/11/24 06:43:26;;;;;;;8.27;4.60;;;9.10;99.90;;;;;;10353349;28;20194;-81
2022/11/24 06:48:30;;;;;;;7.90;4.50;;;9.20;99.90;;;;;;10368872;28;20637;-78
2022/11/24 06:53:36;;;;;;;7.73;4.90;;;9.10;99.90;;;;;;10352851;28;20599;-77
2022/11/24 06:58:41;;;;;;;8.43;3.93;;;9.20;99.90;;;;;;10369852;28;20678;-78
2022/11/24 07:03:46;;;;;;;8.50;3.70;;;9.30;99.90;;;;;;10392488;23;20232;-78
2022/11/24 07:08:50;;;;;;;10.87;6.40;;;9.30;99.90;;;;;;10347555;28;20195;-79
2022/11/24 07:13:52;;;;;;;13.00;6.60;;;9.40;99.90;;;;;;10316263;28;20238;-78
2022/11/24 07:18:56;;;;;;;10.00;5.30;;;9.50;99.90;;;;;;10330020;28;20582;-79
2022/11/24 07:23:58;;;;;;;12.67;6.73;;;9.50;99.90;;;;;;10330821;28;20227;-78
2022/11/24 07:29:00;;;;;;;11.90;7.27;;;9.50;99.90;;;;;;10330361;28;20209;-79
2022/11/24 07:34:07;;;;;;;12.10;6.03;;;9.50;99.90;;;;;;10330300;28;20718;-79
2022/11/24 07:39:09;;;;;;;11.70;7.00;;;9.60;99.90;;;;;;10332071;28;20708;-78
2022/11/24 07:44:11;;;;;;;10.53;5.23;;;9.60;99.90;;;;;;10315503;28;20342;-80
2022/11/24 07:49:14;;;;;;;17.60;6.90;;;9.50;99.90;;;;;;10346075;28;20199;-79
2022/11/24 07:54:16;;;;;;;8.93;5.90;;;9.50;99.90;;;;;;10339434;28;20215;-79
2022/11/24 07:59:18;;;;;;;14.57;5.30;;;9.40;99.90;;;;;;10332517;28;20262;-77
2022/11/24 08:04:22;;;;;;;14.03;8.67;;;9.40;99.90;;;;;;10283433;28;1090797;-78
2022/11/24 08:09:24;;;;;;;9.87;7.30;;;9.40;99.90;;;;;;10338607;28;20575;-79
2022/11/24 08:14:26;;;;;;;8.27;6.83;;;9.40;99.90;;;;;;10338092;28;20223;-79
2022/11/24 08:19:31;;;;;;;6.70;6.13;;;9.50;99.90;;;;;;10334785;28;20302;-79
2022/11/24 08:24:33;;;;;;;8.20;7.43;;;9.40;99.90;;;;;;10336187;28;20219;-79
2022/11/24 08:29:35;;;;;;;8.80;7.87;;;9.30;99.90;;;;;;10336065;28;20203;-79
2022/11/24 08:34:38;;;;;;;6.50;6.03;;;9.40;99.90;;;;;;10317629;28;20215;-79
2022/11/24 08:39:40;;;;;;;8.33;7.47;;;9.40;99.90;;;;;;10344002;28;20270;-79
2022/11/24 08:44:43;;;;;;;8.23;7.53;;;9.40;99.90;;;;;;10360674;28;20221;-79
2022/11/24 08:49:46;;;;;;;8.23;7.40;;;9.40;99.90;;;;;;10346584;28;20254;-77
2022/11/24 08:54:49;;;;;;;6.50;6.20;;;9.40;99.90;;;;;;10328382;28;20278;-79
2022/11/24 08:59:51;;;;;;;7.17;6.47;;;9.40;99.90;;;;;;10342629;28;20215;-80
2022/11/24 09:04:54;;;;;;;6.10;5.70;;;9.40;99.90;;;;;;10347127;28;20281;-79
2022/11/24 09:09:56;;;;;;;4.77;4.50;;;9.40;99.90;;;;;;10346096;28;20683;-78
2022/11/24 09:14:58;;;;;;;5.20;4.80;;;9.30;99.90;;;;;;10344003;28;20219;-79
2022/11/24 09:20:02;;;;;;;4.73;4.43;;;9.30;99.90;;;;;;10340623;28;20215;-77
2022/11/24 09:25:05;;;;;;;5.70;5.30;;;9.40;99.90;;;;;;10326709;28;20641;-77
2022/11/24 09:30:09;;;;;;;5.23;4.83;;;9.50;99.90;;;;;;10342611;28;20195;-78
2022/11/24 09:35:12;;;;;;;5.90;5.40;;;9.60;99.90;;;;;;10332293;28;20223;-79
2022/11/24 09:40:15;;;;;;;4.10;3.90;;;9.70;99.90;;;;;;10328901;28;20239;-79
2022/11/24 09:45:26;;;;;;;3.97;3.87;;;9.80;99.90;;;;;;10329913;28;20223;-79
2022/11/24 09:50:33;;;;;;;4.67;4.37;;;9.80;99.90;;;;;;10338581;28;20575;-80
2022/11/24 09:55:39;;;;;;;3.90;3.70;;;9.80;99.90;;;;;;10370868;28;20227;-80
2022/11/24 10:00:42;;;;;;;3.93;3.73;;;9.90;99.90;;;;;;10357364;28;20258;-79
2022/11/24 10:05:47;;;;;;;4.10;3.90;;;10.00;99.90;;;;;;10359537;28;20234;-79
2022/11/24 10:10:56;;;;;;;3.90;3.70;;;10.10;99.90;;;;;;10337226;28;20289;-78
2022/11/24 10:16:06;;;;;;;3.07;2.87;;;10.20;99.90;;;;;;10327740;28;20266;-79
2022/11/24 10:21:32;;;;;;;3.57;3.30;;;10.30;99.90;;;;;;10337741;28;20242;-79
2022/11/24 10:26:36;;;;;;;3.97;3.73;;;10.40;99.90;;;;;;10335924;28;20257;-79
2022/11/24 10:31:42;;;;;;;3.60;3.50;;;10.50;99.90;;;;;;10338923;28;20199;-79
2022/11/24 10:36:51;;;;;;;4.90;4.33;;;10.60;99.90;;;;;;10336046;28;20615;-80
2022/11/24 10:42:00;;;;;;;3.80;3.47;;;10.50;99.90;;;;;;10341456;28;20725;-80
2022/11/24 10:47:03;;;;;;;5.80;3.80;;;10.50;99.90;;;;;;10336857;28;20237;-82
2022/11/24 10:52:12;;;;;;;4.77;4.57;;;10.50;99.90;;;;;;10354983;28;20199;-79
2022/11/24 10:57:28;;;;;;;5.17;3.60;;;10.60;99.90;;;;;;10364505;28;20227;-79
2022/11/24 11:02:36;;;;;;;4.00;3.70;;;10.50;99.90;;;;;;10335601;28;20203;-79
2022/11/24 11:07:40;;;;;;;3.87;3.57;;;10.50;99.90;;;;;;10329723;28;20231;-80
2022/11/24 11:12:42;;;;;;;4.20;3.17;;;10.60;99.90;;;;;;10317740;28;20550;-77
2022/11/24 11:17:44;;;;;;;6.53;5.93;;;10.70;99.90;;;;;;10339481;28;20230;-77
2022/11/24 11:22:49;;;;;;;3.70;3.50;;;10.70;99.90;;;;;;10326213;28;20204;-77
2022/11/24 11:28:10;;;;;;;4.73;4.20;;;10.80;99.90;;;;;;10327275;28;20630;-78
2022/11/24 11:33:22;;;;;;;4.60;4.27;;;10.90;99.90;;;;;;10331942;28;20206;-78
2022/11/24 11:38:28;;;;;;;3.77;3.47;;;11.00;99.90;;;;;;10339246;28;20728;-78
2022/11/24 11:43:35;;;;;;;4.00;3.80;;;11.00;99.90;;;;;;10332820;28;20227;-78
2022/11/24 11:48:42;;;;;;;3.53;3.20;;;11.00;99.90;;;;;;10341179;28;20195;-77
2022/11/24 11:53:53;;;;;;;4.70;4.30;;;11.10;99.90;;;;;;10315853;28;20211;-78
2022/11/24 11:59:40;;;;;;;9.27;8.47;;;11.00;99.90;;;;;;10340735;28;20653;-79
2022/11/24 12:04:48;;;;;;;5.50;5.23;;;11.00;99.90;;;;;;10323694;28;20226;-79
2022/11/24 12:10:00;;;;;;;5.00;4.50;;;10.80;99.90;;;;;;10333192;28;20254;-78
2022/11/24 12:15:12;;;;;;;4.27;3.87;;;10.70;99.90;;;;;;10342411;28;20215;-79
2022/11/24 12:20:23;;;;;;;5.50;5.00;;;10.70;99.90;;;;;;10342918;28;20227;-79
2022/11/24 12:25:30;;;;;;;5.37;4.97;;;10.70;99.90;;;;;;10335777;28;20227;-82
2022/11/24 12:30:42;;;;;;;4.57;4.17;;;10.80;99.90;;;;;;10336650;28;20207;-79
2022/11/24 12:35:47;;;;;;;17.73;12.87;;;10.90;99.90;;;;;;10335797;28;20255;-78
2022/11/24 12:41:20;;;;;;;8.13;4.90;;;11.00;99.90;;;;;;10324014;28;20219;-79
2022/11/24 12:46:31;;;;;;;6.23;3.87;;;11.10;99.90;;;;;;10320928;28;20225;-79
2022/11/24 12:51:37;;;;;;;6.97;3.47;;;11.20;99.90;;;;;;10336729;28;20203;-80
2022/11/24 12:56:46;;;;;;;6.67;4.53;;;11.30;99.90;;;;;;10325134;28;20702;-79
2022/11/24 13:01:55;;;;;;;8.73;4.07;;;11.30;99.90;;;;;;10345767;28;20195;-77
2022/11/24 13:07:03;;;;;;;7.60;4.43;;;11.40;99.90;;;;;;10378592;23;20272;-79
2022/11/24 13:12:12;;;;;;;5.80;3.80;;;11.50;99.90;;;;;;10342719;28;20258;-80
2022/11/24 13:17:27;;;;;;;6.37;4.10;;;11.50;99.90;;;;;;10342061;28;20215;-79
2022/11/24 13:22:30;;;;;;;5.30;3.93;;;11.30;99.90;;;;;;10347994;28;20208;-81
2022/11/24 13:27:45;;;;;;;10.07;6.70;;;11.20;99.90;;;;;;10359465;28;20223;-77
2022/11/24 13:33:00;;;;;;;7.13;3.77;;;11.10;99.90;;;;;;10326337;28;20194;-78
2022/11/24 13:38:04;;;;;;;5.07;4.47;;;11.10;99.90;;;;;;10337784;28;20218;-77
2022/11/24 13:43:23;;;;;;;5.30;4.40;;;11.10;99.90;;;;;;10317325;28;20570;-78
2022/11/24 13:48:59;;;;;;;7.80;4.70;;;11.10;99.90;;;;;;10333921;28;20269;-79
2022/11/24 13:54:02;;;;;;;4.27;3.80;;;11.20;99.90;;;;;;10334329;28;20195;-80
2022/11/24 13:59:17;;;;;;;17.97;5.40;;;11.30;99.90;;;;;;10337113;28;20223;-81
2022/11/24 14:04:21;;;;;;;7.30;4.60;;;11.30;99.90;;;;;;10346415;28;20247;-79
2022/11/24 14:09:28;;;;;;;6.07;5.47;;;11.20;99.90;;;;;;10330831;28;20235;-79
2022/11/24 14:14:31;;;;;;;6.90;4.40;;;11.10;99.90;;;;;;10345485;28;20215;-78
2022/11/24 14:19:33;;;;;;;8.17;3.73;;;11.00;99.90;;;;;;10342432;28;20595;-79
2022/11/24 14:24:36;;;;;;;7.73;5.73;;;10.90;99.90;;;;;;10336048;28;20234;-79
2022/11/24 14:29:52;;;;;;;5.10;3.77;;;10.80;99.90;;;;;;10343858;28;20233;-79
2022/11/24 14:34:55;;;;;;;10.87;5.30;;;10.80;99.90;;;;;;10342065;28;20301;-78
2022/11/24 14:39:57;;;;;;;8.70;5.40;;;10.70;99.90;;;;;;10344425;28;20230;-78
2022/11/24 14:45:02;;;;;;;7.10;4.47;;;10.60;99.90;;;;;;10351044;28;20235;-80
2022/11/24 14:50:12;;;;;;;7.77;3.63;;;10.50;99.90;;;;;;10349689;28;20234;-79
2022/11/24 14:55:29;;;;;;;5.73;5.20;;;10.50;99.90;;;;;;10337465;28;20254;-79
2022/11/24 15:00:33;;;;;;;11.27;4.67;;;10.40;99.90;;;;;;10345279;28;20211;-78
2022/11/24 15:05:52;;;;;;;7.37;5.10;;;10.40;99.90;;;;;;10338799;28;20753;-79
2022/11/24 15:10:59;;;;;;;6.53;5.40;;;10.40;99.90;;;;;;10348104;28;20305;-78
2022/11/24 15:16:05;;;;;;;7.07;5.33;;;10.40;99.90;;;;;;10337551;28;20258;-79
2022/11/24 15:21:07;;;;;;;6.17;5.53;;;10.40;99.90;;;;;;10339132;28;20311;-78
2022/11/24 15:26:24;;;;;;;6.50;4.73;;;10.30;99.90;;;;;;10342693;28;20261;-78
2022/11/24 15:31:28;;;;;;;8.50;4.97;;;10.30;99.90;;;;;;10367439;28;20195;-78
2022/11/24 15:36:30;;;;;;;12.70;7.10;;;10.30;99.90;;;;;;10362731;28;20223;-78
2022/11/24 15:41:33;;;;;;;6.40;5.90;;;10.20;99.90;;;;;;10336135;28;20211;-79
2022/11/24 15:46:38;;;;;;;9.50;4.70;;;10.20;99.90;;;;;;10347769;28;20222;-78
2022/11/24 15:51:43;;;;;;;8.27;6.03;;;10.10;99.90;;;;;;10339300;28;20359;-78
2022/11/24 15:56:45;;;;;;;10.07;5.97;;;10.00;99.90;;;;;;10336000;28;20218;-78
2022/11/24 16:01:49;;;;;;;8.80;5.17;;;9.90;99.90;;;;;;10337178;28;20209;-78
2022/11/24 16:06:51;;;;;;;9.03;7.57;;;9.80;99.90;;;;;;10330671;28;20765;-78
2022/11/24 16:11:53;;;;;;;10.60;5.47;;;9.70;99.90;;;;;;10328608;28;20215;-76
2022/11/24 16:16:57;;;;;;;10.50;6.23;;;9.60;99.90;;;;;;10330848;28;20219;-77
2022/11/24 16:21:59;;;;;;;7.57;5.20;;;9.50;99.90;;;;;;10331880;28;20483;-77
2022/11/24 16:27:01;;;;;;;8.17;7.37;;;9.40;99.90;;;;;;10332026;28;20216;-78
2022/11/24 16:32:05;;;;;;;6.77;4.87;;;9.20;99.90;;;;;;10343010;28;20561;-78
2022/11/24 16:37:07;;;;;;;8.37;6.07;;;9.10;99.90;;;;;;10330566;28;20220;-78
2022/11/24 16:42:09;;;;;;;9.47;6.47;;;9.00;99.90;;;;;;10338143;28;20253;-77
2022/11/24 16:47:12;;;;;;;7.33;5.13;;;8.90;99.90;;;;;;10330399;28;20230;-77
2022/11/24 16:52:14;;;;;;;8.60;5.30;;;8.80;99.90;;;;;;10341350;28;20213;-78
2022/11/24 16:57:16;;;;;;;10.60;9.23;;;8.80;99.90;;;;;;10367743;28;20244;-77
2022/11/24 17:02:20;;;;;;;9.10;6.80;;;8.80;99.90;;;;;;10374132;28;20638;-80
2022/11/24 17:07:22;;;;;;;15.13;10.40;;;8.70;99.90;;;;;;10375123;28;20226;-77
2022/11/24 17:12:24;;;;;;;12.70;10.87;;;8.60;99.90;;;;;;10375101;28;20202;-78
2022/11/24 17:17:28;;;;;;;38.13;29.50;;;8.60;99.90;;;;;;10373968;28;20260;-78
2022/11/24 17:22:30;;;;;;;21.00;14.73;;;8.60;99.90;;;;;;10374726;28;20554;-77
2022/11/24 17:27:32;;;;;;;14.70;8.67;;;8.60;99.90;;;;;;10376992;28;20269;-80
2022/11/24 17:32:35;;;;;;;12.20;7.20;;;8.50;99.90;;;;;;10378678;28;20198;-77
2022/11/24 17:37:37;;;;;;;13.80;7.40;;;8.50;99.90;;;;;;10372395;28;20489;-78
2022/11/24 17:42:39;;;;;;;12.63;9.23;;;8.40;99.90;;;;;;10372702;28;20260;-75
2022/11/24 17:47:43;;;;;;;12.60;7.13;;;8.40;99.90;;;;;;10372564;28;20437;-75
2022/11/24 17:52:45;;;;;;;6.67;5.97;;;8.40;99.90;;;;;;10381512;28;20214;-79
2022/11/24 17:57:47;;;;;;;10.03;4.90;;;8.30;99.90;;;;;;10382710;28;20234;-80
2022/11/24 18:02:50;;;;;;;7.90;6.73;;;8.30;99.90;;;;;;10337310;28;20230;-80
2022/11/24 18:07:53;;;;;;;13.33;10.23;;;8.30;99.90;;;;;;10381705;28;20285;-78
2022/11/24 18:12:56;;;;;;;24.33;16.37;;;8.20;99.90;;;;;;10382678;28;20191;-80
2022/11/24 18:17:59;;;;;;;17.03;13.30;;;8.30;99.90;;;;;;10380499;28;20223;-80
2022/11/24 18:23:01;;;;;;;10.43;9.27;;;8.30;99.90;;;;;;10377975;28;20206;-79
2022/11/24 18:28:03;;;;;;;17.13;10.23;;;8.30;99.90;;;;;;10377447;28;20219;-79
2022/11/24 18:33:07;;;;;;;14.47;9.77;;;8.30;99.90;;;;;;10379289;28;20194;-80
2022/11/24 18:38:09;;;;;;;17.50;14.70;;;8.30;99.90;;;;;;10379431;28;20302;-80
2022/11/24 18:43:11;;;;;;;17.27;11.37;;;8.20;99.90;;;;;;10380931;28;20277;-79
2022/11/24 18:48:15;;;;;;;15.10;7.93;;;8.20;99.90;;;;;;10378485;28;20215;-78
2022/11/24 18:53:18;;;;;;;9.80;7.80;;;8.20;99.90;;;;;;10379736;28;20195;-78
2022/11/24 18:58:20;;;;;;;13.20;9.10;;;8.10;99.90;;;;;;10363140;28;20214;-78
2022/11/24 19:03:23;;;;;;;8.60;5.80;;;8.10;99.90;;;;;;10381572;28;20217;-81
2022/11/24 19:08:25;;;;;;;14.57;7.67;;;8.10;99.90;;;;;;10325756;23;20314;-79
2022/11/24 19:19:07;;;;;;;9.80;8.13;;;8.00;99.90;;;;;;10280564;28;20246;-77
2022/11/24 19:24:13;;;;;;;9.67;8.77;;;8.00;99.90;;;;;;10315815;28;20497;-79
2022/11/24 19:29:17;;;;;;;9.87;8.97;;;7.90;99.90;;;;;;10311959;28;20208;-80
2022/11/24 19:34:20;;;;;;;11.57;8.70;;;7.90;99.90;;;;;;10278378;28;20238;-79
2022/11/24 19:39:23;;;;;;;14.80;11.30;;;7.90;99.90;;;;;;10279860;28;20284;-80
2022/11/24 19:44:27;;;;;;;11.30;9.60;;;7.90;99.90;;;;;;10281192;28;20223;-80
2022/11/24 19:49:30;;;;;;;13.50;11.13;;;7.90;99.90;;;;;;10298696;28;20231;-80
2022/11/24 19:54:34;;;;;;;13.23;11.33;;;7.90;99.90;;;;;;10281684;28;20219;-80
2022/11/24 19:59:36;;;;;;;16.43;9.67;;;7.80;99.90;;;;;;10298674;28;20222;-80
2022/11/24 20:04:41;;;;;;;13.23;9.43;;;7.90;99.90;;;;;;10320229;28;20226;-81
2022/11/24 20:09:43;;;;;;;16.20;10.37;;;7.90;99.90;;;;;;10389092;28;20205;-81
2022/11/24 20:14:45;;;;;;;15.43;10.70;;;7.80;99.90;;;;;;10414880;28;20714;-81
2022/11/24 20:19:49;;;;;;;14.83;10.13;;;7.90;99.90;;;;;;10397424;28;20217;-81
2022/11/24 20:24:51;;;;;;;16.60;11.83;;;7.90;99.90;;;;;;10417946;28;20310;-81
2022/11/24 20:29:53;;;;;;;10.63;9.07;;;7.80;99.90;;;;;;10396014;28;20206;-81
2022/11/24 20:34:57;;;;;;;13.83;9.60;;;7.90;99.90;;;;;;10408333;28;20222;-81
2022/11/24 20:40:01;;;;;;;10.93;9.80;;;7.90;99.90;;;;;;10402916;28;20210;-81
2022/11/24 20:45:04;;;;;;;13.30;10.30;;;7.80;99.90;;;;;;10407251;28;20219;-81
2022/11/24 20:50:08;;;;;;;11.63;9.63;;;7.80;99.90;;;;;;10375901;28;20195;-81
2022/11/24 20:55:10;;;;;;;12.70;8.97;;;7.80;99.90;;;;;;10393943;28;20752;-81
2022/11/24 21:00:13;;;;;;;9.70;8.70;;;7.80;99.90;;;;;;10393746;28;20218;-81
2022/11/24 21:05:16;;;;;;;11.80;8.37;;;7.70;99.90;;;;;;10401245;28;20226;-81
2022/11/24 21:10:18;;;;;;;14.17;8.97;;;7.60;99.90;;;;;;10399947;28;20194;-81
2022/11/24 21:15:22;;;;;;;36.23;28.37;;;7.60;99.90;;;;;;10407551;28;20218;-81
2022/11/24 21:20:26;;;;;;;11.43;9.50;;;7.50;99.90;;;;;;10408519;28;20222;-80
2022/11/24 21:25:28;;;;;;;16.10;9.60;;;7.40;99.90;;;;;;10425530;28;20210;-81
2022/11/24 21:30:30;;;;;;;9.37;8.37;;;7.40;99.90;;;;;;10396829;28;20203;-80
2022/11/24 21:35:36;;;;;;;11.23;8.27;;;7.50;99.90;;;;;;10405872;28;20225;-81
2022/11/24 21:40:38;;;;;;;9.83;8.17;;;7.50;99.90;;;;;;10409355;28;20211;-80
2022/11/24 21:45:40;;;;;;;11.80;8.50;;;7.50;99.90;;;;;;10415326;28;20245;-79
2022/11/24 21:50:44;;;;;;;9.40;8.30;;;7.50;99.90;;;;;;10417564;28;20722;-79
2022/11/24 21:55:54;;;;;;;8.40;7.60;;;7.40;99.90;;;;;;10378869;28;20585;-79
2022/11/24 22:01:01;;;;;;;9.87;7.40;;;7.40;99.90;;;;;;10376224;28;20642;-80
2022/11/24 22:06:05;;;;;;;8.93;7.30;;;7.40;99.90;;;;;;10381030;28;20222;-78
2022/11/24 22:11:11;;;;;;;8.37;7.57;;;7.30;99.90;;;;;;10386834;28;20197;-79
2022/11/24 22:16:15;;;;;;;8.67;7.77;;;7.30;99.90;;;;;;10384650;28;20261;-80
2022/11/24 22:21:28;;;;;;;12.50;9.60;;;7.30;99.90;;;;;;10384379;28;20218;-79
2022/11/24 22:26:31;;;;;;;7.80;7.10;;;7.30;99.90;;;;;;10411404;28;20222;-80
2022/11/24 22:31:33;;;;;;;8.77;6.27;;;7.30;99.90;;;;;;10377662;28;20190;-81
2022/11/24 22:36:37;;;;;;;9.13;6.23;;;7.20;99.90;;;;;;10381093;28;20297;-80
2022/11/24 22:41:39;;;;;;;7.17;6.47;;;7.20;99.90;;;;;;10377048;28;20222;-80
2022/11/24 22:46:41;;;;;;;9.17;7.67;;;7.10;99.90;;;;;;10376841;28;20257;-80
2022/11/24 22:51:44;;;;;;;8.60;7.20;;;7.10;99.90;;;;;;10359543;28;20201;-80
2022/11/24 22:56:46;;;;;;;9.50;7.80;;;7.10;99.90;;;;;;10364697;28;20213;-79
2022/11/24 23:01:48;;;;;;;7.43;6.73;;;6.90;99.90;;;;;;10413342;28;20550;-79
2022/11/24 23:06:51;;;;;;;10.77;7.07;;;6.90;99.90;;;;;;10379357;28;20555;-79
2022/11/24 23:11:53;;;;;;;7.70;6.73;;;6.90;99.90;;;;;;10415484;28;20281;-79
2022/11/24 23:16:56;;;;;;;11.63;6.50;;;6.90;99.90;;;;;;10372166;28;20564;-80
2022/11/24 23:21:59;;;;;;;7.33;6.50;;;6.90;99.90;;;;;;10410895;28;20219;-80
2022/11/24 23:27:01;;;;;;;9.43;6.50;;;6.90;99.90;;;;;;10387683;28;20210;-80
2022/11/24 23:32:03;;;;;;;8.80;6.03;;;6.90;99.90;;;;;;10399611;28;20190;-79
2022/11/24 23:37:06;;;;;;;6.73;5.97;;;7.00;99.90;;;;;;10375477;28;20217;-81
2022/11/24 23:42:08;;;;;;;6.70;5.73;;;6.90;99.90;;;;;;10384751;28;20709;-80
2022/11/24 23:47:11;;;;;;;7.20;6.60;;;6.90;99.90;;;;;;10379010;28;20223;-80
2022/11/24 23:52:14;;;;;;;9.63;6.57;;;6.80;99.90;;;;;;10371844;28;20229;-79
2022/11/24 23:57:16;;;;;;;10.23;7.77;;;6.90;99.90;;;;;;10389772;28;20222;-79
